Meteo Giornale » Osservazioni meteo Austria » Zeltweg

ore: 07:50 - Osservazioni Meteo Zeltweg
Lat. 47° 12' N Lon. 14° 45' E Alt. 677 metri s.l.m.

poco_nuvoloso Europe/Vienna

19 °C

Poco Nuvoloso

Temp. 24 Ore

14 °C

30 °C

Nord

3.7 Km/h

Dew point 13 °C

Umidità 68 %

Visibilità  30 Km

Il sole sorge alle ore 05:04

Il sole tramonta alle ore 21:03

Data e Ora Cielo e Fenomeni T °C DP °C Um. % Pres. hPa Vis. km Vento km/h
Oggi h: 07:50 poco_nuvoloso Poco Nuvoloso 19 13 68 1017 30 N 3.7
Oggi h: 07:20 poco_nuvoloso Poco Nuvoloso 19 12 63 1017 30 N 0
Oggi h: 06:50 poco_nuvoloso Poco Nuvoloso 17 13 77 1017 30 N 3.7
Oggi h: 05:50 nuvoloso Nuvoloso 14 11 82 1017 30 O 7.4
Oggi h: 04:50 nuvoloso Nuvoloso 16 10 67 1017 30 N 1.8
Oggi h: 01:50 molto_nuvoloso Molto Nuvoloso 20 9 49 1015 20 N 3.7
Ieri h: 22:50 molto_nuvoloso Molto Nuvoloso 23 12 49 1015 20 O/SO 9.3
Ieri h: 21:50 molto_nuvoloso Molto Nuvoloso 23 12 49 1015 20 O/SO 13
Ieri h: 20:50 molto_nuvoloso Molto Nuvoloso 24 14 53 1014 20 O/SO 11.1
Ieri h: 19:50 molto_nuvoloso Molto Nuvoloso 27 11 36 1014 20 SO 13
Ieri h: 19:20 molto_nuvoloso Molto Nuvoloso 28 12 37 1014 20 SO 18.5
Ieri h: 18:50 molto_nuvoloso Molto Nuvoloso 28 11 34 1014 20 S/SO 20.3
Ieri h: 18:20 molto_nuvoloso Molto Nuvoloso 29 12 35 1014 20 S/SO 22.2
Ieri h: 17:50 molto_nuvoloso Molto Nuvoloso 29 12 35 1014 20 S/SO 20.3
Ieri h: 17:20 molto_nuvoloso Molto Nuvoloso 29 13 37 1015 20 S 16.7
Ieri h: 16:50 molto_nuvoloso Molto Nuvoloso 29 13 37 1015 20 S/SO 18.5
Ieri h: 16:20 nuvoloso Nuvoloso 29 13 37 1015 20 S 18.5
Ieri h: 15:50 nuvoloso Nuvoloso 29 13 37 1016 20 S/SO 24
Ieri h: 15:20 nuvoloso Nuvoloso 29 13 37 1016 20 SO 20.3
Ieri h: 14:50 nuvoloso Nuvoloso 30 14 37 1016 20 SO 24
Ieri h: 14:20 nuvoloso Nuvoloso 30 15 40 1016 20 S/SO 14.8
Ieri h: 13:50 nuvoloso Nuvoloso 29 15 42 1016 20 SO 13
Ieri h: 13:20 nuvoloso Nuvoloso 29 15 42 1016 20 S/SO 14.8
Ieri h: 12:50 nuvoloso Nuvoloso 29 18 51 1017 20 N 5.5
Ieri h: 12:20 poco_nuvoloso Poco Nuvoloso 27 19 61 1017 25 N 3.7
Ieri h: 11:50 poco_nuvoloso Poco Nuvoloso 25 18 65 1017 25 N 3.7
Ieri h: 11:20 nuvoloso Nuvoloso 24 19 73 1017 25 N 1.8
Ieri h: 10:50 nuvoloso Nuvoloso 24 19 73 1017 25 N 3.7
Ieri h: 10:20 poco_nuvoloso Poco Nuvoloso 22 18 78 1018 25 N 1.8
Ieri h: 09:50 poco_nuvoloso Poco Nuvoloso 21 18 82 1018 20 N 1.8
Ieri h: 09:20 poco_nuvoloso Poco Nuvoloso 20 18 88 1018 20 N 3.7
Ieri h: 08:50 nuvoloso Nuvoloso 19 17 88 1018 20 N 3.7